Time;durP1;ratioP1;P1;durP2;ratioP2;P2;SDS_P1;SDS_P2;PMS_P1;PMS_P2;Temp;Humidity;BMP_temperature;BMP_pressure;BME280_temperature;BME280_humidity;BME280_pressure;Samples;Min_cycle;Max_cycle;Signal;HPM_P1;HPM_P2
2023/07/02 00:01:04;;;;;;;6.20;2.33;;;;;;;28.09;59.00;100888.25;5058424;28;66152;-41
2023/07/02 00:03:37;;;;;;;7.40;2.50;;;;;;;27.82;61.31;100850.38;5057509;28;70015;-42
2023/07/02 00:06:09;;;;;;;7.30;3.25;;;;;;;28.22;64.91;100893.66;5058850;27;66478;-42
2023/07/02 00:08:40;;;;;;;8.10;3.60;;;;;;;28.31;67.25;100900.56;5056388;28;71901;-43
2023/07/02 00:11:12;;;;;;;13.53;4.10;;;;;;;28.41;69.08;100908.25;5055921;28;66415;-46
2023/07/02 00:13:43;;;;;;;;;;;;;;;28.26;71.30;100917.34;5058714;28;70041;-43
2023/07/02 00:16:14;;;;;;;9.75;5.13;;;;;;;28.46;70.55;100914.72;5062047;28;66130;-44
2023/07/02 00:18:52;;;;;;;4.38;3.97;;;;;;;28.24;73.18;100876.25;5061583;28;70212;-44
2023/07/02 00:21:27;;;;;;;9.85;4.90;;;;;;;28.60;72.92;100920.19;5060236;28;65880;-44
2023/07/02 00:24:00;;;;;;;6.78;4.90;;;;;;;28.46;74.04;100906.63;5061268;28;70694;-44
2023/07/02 00:26:31;;;;;;;10.65;5.32;;;;;;;28.66;71.50;100922.06;5058500;28;65633;-46
2023/07/02 00:29:04;;;;;;;9.87;5.60;;;;;;;28.61;73.43;100917.28;5062020;28;70693;-43
2023/07/02 00:31:35;;;;;;;12.85;5.60;;;;;;;28.60;75.53;100915.59;5055529;28;66746;-45
2023/07/02 00:34:07;;;;;;;11.75;8.23;;;;;;;28.68;76.08;100925.38;5057826;28;71037;-43
2023/07/02 00:36:41;;;;;;;21.05;10.18;;;;;;;28.74;76.11;100930.78;5043413;28;65972;-44
2023/07/02 00:39:13;;;;;;;14.52;10.02;;;;;;;28.80;77.04;100923.72;5059867;28;69828;-43
2023/07/02 00:41:47;;;;;;;22.13;11.15;;;;;;;28.71;77.68;100912.31;5062611;28;66572;-45
2023/07/02 00:44:19;;;;;;;26.95;13.02;;;;;;;28.86;77.80;100920.25;5058681;28;70503;-45
2023/07/02 00:46:53;;;;;;;28.55;13.60;;;;;;;28.90;77.47;100921.47;5058386;28;66488;-43
2023/07/02 00:49:25;;;;;;;30.77;14.70;;;;;;;28.91;79.16;100920.44;5057621;28;69490;-43
2023/07/02 00:51:55;;;;;;;;;;;;;;;28.75;80.22;100923.50;5061336;28;66694;-43
2023/07/02 00:54:31;;;;;;;27.55;14.35;;;;;;;29.13;75.45;100917.56;5041010;28;70688;-44
2023/07/02 00:57:03;;;;;;;30.30;13.85;;;;;;;29.15;73.02;100916.31;5061126;28;67552;-44
2023/07/02 00:59:37;;;;;;;31.52;13.25;;;;;;;29.18;71.86;100918.59;5061522;28;70381;-44
2023/07/02 01:02:08;;;;;;;23.08;12.27;;;;;;;29.22;72.10;100920.88;5026848;28;66309;-44
2023/07/02 01:04:40;;;;;;;26.23;12.13;;;;;;;29.05;71.46;100888.91;5060281;28;69907;-43
2023/07/02 01:07:11;;;;;;;23.40;11.43;;;;;;;29.24;71.48;100919.66;5062864;28;66164;-44
2023/07/02 01:09:43;;;;;;;17.52;11.75;;;;;;;29.28;71.10;100931.72;5041746;28;69356;-43
2023/07/02 01:12:15;;;;;;;17.27;10.95;;;;;;;29.28;71.01;100922.75;5047418;28;66437;-45
2023/07/02 01:14:52;;;;;;;19.05;10.57;;;;;;;29.32;71.42;100932.13;5054826;28;70098;-42
2023/07/02 01:17:25;;;;;;;22.38;12.38;;;;;;;29.07;79.32;100913.00;5061702;28;66237;-44
2023/07/02 01:19:59;;;;;;;20.00;10.82;;;;;;;29.26;78.79;100933.78;5055255;28;70429;-45
2023/07/02 01:22:30;;;;;;;19.52;10.50;;;;;;;29.23;80.01;100931.50;5058762;28;65570;-43
2023/07/02 01:25:05;;;;;;;15.57;9.30;;;;;;;29.17;80.33;100926.94;5059329;28;70706;-45
2023/07/02 01:27:39;;;;;;;17.77;9.80;;;;;;;29.06;80.63;100916.72;5057448;28;66323;-44
2023/07/02 01:30:10;;;;;;;19.40;8.45;;;;;;;29.28;79.10;100931.72;5041585;28;69585;-41
2023/07/02 01:32:41;;;;;;;15.40;8.35;;;;;;;29.29;82.62;100933.38;5031711;28;66379;-42
2023/07/02 01:35:13;;;;;;;19.90;8.40;;;;;;;28.98;83.32;100881.81;5058235;28;70169;-44
2023/07/02 01:37:44;;;;;;;15.57;7.33;;;;;;;29.09;82.65;100900.97;5057758;28;66033;-42
2023/07/02 01:40:16;;;;;;;16.63;8.30;;;;;;;29.31;83.38;100942.09;5040240;28;70188;-40
2023/07/02 01:42:47;;;;;;;12.60;7.20;;;;;;;29.35;82.42;100948.75;5057802;28;64133;-40
2023/07/02 01:45:18;;;;;;;11.50;7.07;;;;;;;29.41;83.18;100957.88;5058024;28;69768;-42
2023/07/02 01:47:49;;;;;;;9.63;6.93;;;;;;;29.43;83.96;100949.59;5059020;28;65078;-41
2023/07/02 01:50:21;;;;;;;12.02;6.20;;;;;;;29.39;83.45;100936.50;5042038;28;70354;-41
2023/07/02 01:52:53;;;;;;;11.63;7.28;;;;;;;29.45;83.71;100947.47;5040289;28;66447;-42
2023/07/02 01:55:25;;;;;;;11.07;6.03;;;;;;;29.65;79.43;100953.75;5061153;28;69828;-46
2023/07/02 01:57:56;;;;;;;7.13;5.22;;;;;;;29.66;78.37;100955.41;5043958;28;65943;-44
2023/07/02 02:00:27;;;;;;;5.82;5.28;;;;;;;29.62;78.10;100946.03;5060577;28;69979;-45
2023/07/02 02:02:59;;;;;;;5.13;4.40;;;;;;;29.73;77.33;100956.22;5061096;28;65459;-44
2023/07/02 02:05:30;;;;;;;4.28;3.92;;;;;;;29.69;76.65;100946.88;5059197;28;69728;-44
2023/07/02 02:08:01;;;;;;;5.40;4.63;;;;;;;29.73;76.32;100958.94;5060335;28;66257;-44
2023/07/02 02:10:33;;;;;;;4.43;4.03;;;;;;;29.81;75.79;100958.72;5043409;28;69886;-46
2023/07/02 02:13:04;;;;;;;5.07;4.55;;;;;;;29.83;75.56;100967.41;5041876;28;66778;-44
2023/07/02 02:15:36;;;;;;;8.20;4.17;;;;;;;29.87;75.72;100961.63;5042252;28;69524;-46
2023/07/02 02:18:07;;;;;;;;;;;;;;;29.50;76.57;100955.78;5031970;28;66243;-45
2023/07/02 02:20:39;;;;;;;7.57;4.47;;;;;;;29.81;75.47;100945.19;5033807;28;68923;-46
2023/07/02 02:23:11;;;;;;;6.57;3.95;;;;;;;29.84;75.10;100947.47;5040465;28;65734;-45
2023/07/02 02:25:42;;;;;;;3.80;3.40;;;;;;;29.86;75.23;100935.59;5060037;28;69611;-46
2023/07/02 02:28:13;;;;;;;4.15;3.75;;;;;;;29.96;74.93;100955.75;5060012;28;66294;-44
2023/07/02 02:30:45;;;;;;;4.57;4.18;;;;;;;29.98;75.34;100956.38;5060488;28;70384;-46
2023/07/02 02:33:17;;;;;;;;;;;;;;;29.61;75.94;100964.13;5049849;28;66612;-47
2023/07/02 02:35:48;;;;;;;4.13;3.72;;;;;;;29.99;75.03;100962.63;5060099;28;69794;-45
2023/07/02 02:38:19;;;;;;;3.97;3.55;;;;;;;30.03;74.80;100966.53;5042944;28;66981;-45
2023/07/02 02:40:51;;;;;;;5.28;3.53;;;;;;;29.92;74.80;100948.25;5053350;28;70372;-44
2023/07/02 02:43:22;;;;;;;4.80;3.70;;;;;;;30.08;74.67;100964.03;5042180;28;66273;-46
2023/07/02 02:45:54;;;;;;;4.40;4.07;;;;;;;30.09;74.49;100957.59;5055795;28;70053;-44
2023/07/02 02:48:25;;;;;;;4.38;4.07;;;;;;;30.13;74.71;100961.53;5058020;28;65381;-46
2023/07/02 02:50:56;;;;;;;4.30;3.90;;;;;;;30.13;74.80;100964.22;5057908;28;69261;-45
2023/07/02 02:53:27;;;;;;;4.27;3.87;;;;;;;30.04;74.93;100946.59;5042085;28;66130;-45
2023/07/02 02:55:58;;;;;;;4.70;4.10;;;;;;;30.01;74.51;100938.91;5056403;28;69873;-44
2023/07/02 02:58:30;;;;;;;4.82;3.95;;;;;;;30.21;74.40;100958.59;5039598;28;65441;-45
2023/07/02 03:01:01;;;;;;;5.50;4.13;;;;;;;30.22;74.79;100959.44;5038152;28;69775;-46
2023/07/02 03:03:38;;;;;;;6.50;4.80;;;;;;;30.24;74.54;100962.78;5045967;28;66134;-45
2023/07/02 03:06:10;;;;;;;5.25;4.80;;;;;;;30.28;74.66;100959.44;5016662;28;69822;-45
2023/07/02 03:08:41;;;;;;;9.23;5.53;;;;;;;30.29;74.34;100965.66;5037423;28;65283;-45
2023/07/02 03:11:13;;;;;;;11.27;6.80;;;;;;;30.32;74.42;100969.81;5059388;28;69836;-46
2023/07/02 03:13:44;;;;;;;14.73;7.53;;;;;;;30.17;74.28;100937.56;5061518;28;66241;-46
2023/07/02 03:16:15;;;;;;;12.40;8.85;;;;;;;30.36;74.96;100977.28;5058438;28;69084;-45
2023/07/02 03:18:46;;;;;;;14.97;9.53;;;;;;;30.39;74.85;100970.63;5060920;28;66325;-46
2023/07/02 03:21:18;;;;;;;22.02;10.40;;;;;;;30.35;75.11;100958.56;5059119;28;70432;-45
2023/07/02 03:23:49;;;;;;;22.25;12.77;;;;;;;30.44;74.43;100958.09;5059881;28;66180;-46
2023/07/02 03:26:21;;;;;;;28.50;14.60;;;;;;;30.44;74.70;100957.28;5059850;28;69892;-45
2023/07/02 03:28:53;;;;;;;42.88;17.60;;;;;;;30.46;74.74;100950.59;5060116;28;65831;-46
2023/07/02 03:31:24;;;;;;;50.92;19.70;;;;;;;30.49;74.85;100949.34;5056741;28;69967;-46
2023/07/02 03:33:55;;;;;;;48.73;19.60;;;;;;;30.53;75.20;100955.97;5059312;28;65370;-47
2023/07/02 03:36:27;;;;;;;51.38;20.17;;;;;;;30.55;75.55;100953.88;5059413;28;70270;-46
2023/07/02 03:38:58;;;;;;;41.67;18.25;;;;;;;30.57;75.21;100954.50;5042102;28;65610;-45
2023/07/02 03:41:29;;;;;;;40.58;19.10;;;;;;;30.60;75.68;100948.66;5059117;28;70575;-46
2023/07/02 03:44:01;;;;;;;49.67;19.30;;;;;;;30.62;75.36;100949.28;5057195;28;65992;-45
2023/07/02 03:46:32;;;;;;;59.73;29.37;;;;;;;30.35;80.86;100948.56;5058977;28;71119;-44
2023/07/02 03:49:04;;;;;;;105.60;65.63;;;;;;;30.31;82.18;100949.19;5060400;28;65771;-47
2023/07/02 03:51:36;;;;;;;212.65;142.15;;;;;;;30.31;81.52;100958.16;5021228;28;69147;-46
2023/07/02 03:54:07;;;;;;;282.52;211.25;;;;;;;30.23;82.75;100945.72;5057633;28;65837;-44
2023/07/02 03:56:38;;;;;;;305.08;230.45;;;;;;;30.16;82.85;100935.91;5059836;28;70379;-46
2023/07/02 03:59:10;;;;;;;297.03;216.23;;;;;;;30.24;83.26;100952.78;5056142;28;64866;-44
2023/07/02 04:01:41;;;;;;;290.05;210.15;;;;;;;30.28;83.95;100948.59;5057424;28;70287;-46
2023/07/02 04:04:13;;;;;;;274.83;198.40;;;;;;;30.32;83.55;100943.59;5056371;28;66165;-43
2023/07/02 04:06:44;;;;;;;253.77;184.73;;;;;;;30.35;84.14;100953.97;5057884;28;69833;-43
2023/07/02 04:09:16;;;;;;;238.17;169.43;;;;;;;30.38;83.94;100947.31;5057571;28;64441;-43
2023/07/02 04:11:47;;;;;;;220.00;158.63;;;;;;;30.43;83.60;100944.78;5058585;28;70708;-43
2023/07/02 04:14:18;;;;;;;208.83;147.27;;;;;;;30.43;84.62;100955.63;5060005;28;65346;-45
2023/07/02 04:16:49;;;;;;;186.68;133.55;;;;;;;30.39;83.89;100932.72;5060485;28;69348;-44
2023/07/02 04:19:21;;;;;;;181.75;130.27;;;;;;;30.38;84.33;100928.38;5059462;28;66325;-44
2023/07/02 04:21:52;;;;;;;161.63;118.07;;;;;;;30.49;84.09;100943.91;5053417;28;70311;-44
2023/07/02 04:24:25;;;;;;;155.53;110.27;;;;;;;30.53;83.43;100938.91;5061310;28;65406;-44
2023/07/02 04:26:57;;;;;;;143.23;105.65;;;;;;;30.32;83.84;100905.69;5057634;28;70724;-45
2023/07/02 04:29:31;;;;;;;133.63;94.00;;;;;;;30.53;84.05;100928.91;5060581;28;65692;-45
2023/07/02 04:32:03;;;;;;;118.63;85.53;;;;;;;30.58;83.15;100925.53;5059483;28;69555;-43
2023/07/02 04:34:36;;;;;;;119.27;83.70;;;;;;;30.82;80.77;100921.28;5062733;28;65629;-42
2023/07/02 04:37:09;;;;;;;103.90;76.25;;;;;;;30.93;80.08;100915.97;5043430;28;70190;-41
2023/07/02 04:39:40;;;;;;;103.88;78.82;;;;;;;30.99;79.27;100906.13;5059350;28;66546;-42
2023/07/02 04:42:13;;;;;;;105.40;85.82;;;;;;;30.94;79.06;100887.00;5030581;28;69136;-42
2023/07/02 04:44:44;;;;;;;105.60;83.22;;;;;;;31.10;78.48;100900.00;5024380;28;65708;-44
2023/07/02 04:47:16;;;;;;;109.15;90.78;;;;;;;31.15;78.34;100893.91;5064193;28;70078;-42
2023/07/02 04:49:47;;;;;;;114.45;95.82;;;;;;;31.20;77.95;100895.94;5060631;28;66196;-43
2023/07/02 04:52:18;;;;;;;112.38;99.35;;;;;;;31.22;77.74;100900.09;5043958;28;69730;-43
2023/07/02 04:54:50;;;;;;;123.50;110.10;;;;;;;31.24;77.60;100881.75;5062705;28;65095;-41
2023/07/02 04:57:21;;;;;;;121.65;108.65;;;;;;;31.29;77.51;100881.91;5061907;28;70116;-43
2023/07/02 04:59:54;;;;;;;118.78;106.20;;;;;;;30.88;77.56;100812.03;5057214;28;66081;-42
2023/07/02 05:02:25;;;;;;;127.10;113.70;;;;;;;31.35;76.95;100877.47;5062187;28;70061;-44
2023/07/02 05:04:57;;;;;;;133.13;119.07;;;;;;;31.40;76.94;100872.25;5059740;28;66153;-41
2023/07/02 05:07:28;;;;;;;143.90;129.73;;;;;;;31.33;76.85;100841.63;5061621;28;69108;-44
2023/07/02 05:09:59;;;;;;;140.27;125.93;;;;;;;31.15;77.88;100856.00;5061266;28;65765;-44
2023/07/02 05:12:31;;;;;;;133.02;119.38;;;;;;;31.02;78.40;100840.66;5044101;28;69392;-44
2023/07/02 05:15:03;;;;;;;121.50;108.85;;;;;;;31.00;78.98;100836.53;5042778;28;65259;-46
2023/07/02 05:17:35;;;;;;;122.25;109.47;;;;;;;30.84;79.30;100810.81;5058457;28;69439;-44
2023/07/02 05:20:08;;;;;;;121.88;109.60;;;;;;;30.97;79.50;100826.13;5051306;28;66218;-44
2023/07/02 05:22:39;;;;;;;122.63;110.10;;;;;;;31.00;79.21;100815.66;5054776;28;69581;-42
2023/07/02 05:25:10;;;;;;;126.50;113.93;;;;;;;31.04;78.90;100816.91;5056467;28;66324;-43
2023/07/02 05:27:42;;;;;;;136.47;123.03;;;;;;;30.62;79.25;100759.75;5055202;28;69924;-43
2023/07/02 05:30:13;;;;;;;132.88;119.72;;;;;;;31.00;79.75;100799.41;5049874;28;65408;-43
2023/07/02 05:32:45;;;;;;;136.30;122.78;;;;;;;31.01;79.84;100801.09;5057637;28;68902;-44
2023/07/02 05:35:16;;;;;;;131.95;118.78;;;;;;;31.05;79.05;100796.06;5058717;28;65265;-43
2023/07/02 05:37:48;;;;;;;133.55;120.43;;;;;;;31.02;79.80;100786.50;5059778;28;69300;-43
2023/07/02 05:40:19;;;;;;;136.45;122.65;;;;;;;31.01;79.59;100790.25;5058858;28;65580;-42
2023/07/02 05:42:50;;;;;;;135.70;122.27;;;;;;;30.97;79.82;100777.38;5060524;28;70196;-42
2023/07/02 05:45:23;;;;;;;135.70;122.30;;;;;;;31.02;79.96;100767.53;5043344;28;66074;-41
2023/07/02 05:47:55;;;;;;;127.65;115.03;;;;;;;30.94;78.83;100749.69;5059539;28;70427;-40
2023/07/02 05:50:26;;;;;;;122.82;110.50;;;;;;;30.76;76.13;100752.34;5057785;28;67310;-41
2023/07/02 05:52:57;;;;;;;106.82;96.10;;;;;;;30.61;73.95;100758.06;5061751;28;69228;-41
2023/07/02 05:55:28;;;;;;;105.95;94.70;;;;;;;30.59;72.84;100749.38;5061981;28;66322;-39
2023/07/02 05:58:01;;;;;;;97.17;87.53;;;;;;;30.34;70.63;100740.41;5063912;28;70006;-40
2023/07/02 06:00:32;;;;;;;93.03;83.47;;;;;;;29.99;68.99;100700.25;5060806;28;66273;-43
2023/07/02 06:03:04;;;;;;;83.43;74.93;;;;;;;30.22;68.46;100738.41;5058706;28;69257;-42
2023/07/02 06:05:35;;;;;;;81.80;73.45;;;;;;;30.09;66.42;100727.66;5061437;28;66159;-39
2023/07/02 06:08:07;;;;;;;76.72;68.57;;;;;;;29.93;65.76;100711.97;5045181;28;70278;-42
2023/07/02 06:10:38;;;;;;;72.40;64.85;;;;;;;29.90;64.62;100723.22;5068171;28;65319;-41
2023/07/02 06:13:10;;;;;;;66.40;59.37;;;;;;;29.90;63.94;100734.03;5042475;28;69826;-41
2023/07/02 06:15:41;;;;;;;63.40;57.00;;;;;;;29.87;62.82;100746.09;5063777;28;66097;-40
2023/07/02 06:18:13;;;;;;;58.40;52.27;;;;;;;29.78;62.15;100745.53;5060512;28;69891;-40
2023/07/02 06:20:45;;;;;;;56.53;51.03;;;;;;;29.69;61.11;100733.28;5061019;28;66308;-41
2023/07/02 06:23:17;;;;;;;52.75;47.30;;;;;;;29.62;61.38;100743.28;5055937;28;69481;-41
2023/07/02 06:25:51;;;;;;;48.63;43.72;;;;;;;29.64;59.97;100757.44;5061255;28;65890;-40
2023/07/02 06:28:23;;;;;;;49.60;41.35;;;;;;;29.59;60.10;100754.53;5058056;28;69588;-40
2023/07/02 06:30:54;;;;;;;49.92;38.67;;;;;;;29.57;59.22;100753.91;5064394;28;65767;-40
2023/07/02 06:33:26;;;;;;;39.85;35.90;;;;;;;29.49;58.72;100748.75;5048559;28;69726;-39
2023/07/02 06:35:57;;;;;;;38.93;34.73;;;;;;;29.43;58.68;100733.41;5062025;28;65999;-40
2023/07/02 06:38:28;;;;;;;36.00;32.47;;;;;;;29.33;58.63;100704.94;5055781;28;69598;-40
2023/07/02 06:41:00;;;;;;;35.13;31.65;;;;;;;29.28;57.79;100710.19;5056523;28;66160;-42
2023/07/02 06:43:31;;;;;;;32.50;29.52;;;;;;;29.36;56.88;100720.75;5060925;28;69358;-39
2023/07/02 06:46:02;;;;;;;30.20;27.40;;;;;;;29.31;56.98;100717.84;5063517;28;66013;-42
2023/07/02 06:48:34;;;;;;;28.90;26.30;;;;;;;29.31;56.89;100734.06;5059928;28;70718;-41
2023/07/02 06:51:06;;;;;;;27.48;24.70;;;;;;;29.38;57.34;100742.97;5051680;28;66800;-43
2023/07/02 06:53:38;;;;;;;26.58;24.45;;;;;;;29.33;56.17;100775.19;5039391;28;70038;-42
2023/07/02 06:56:09;;;;;;;24.02;21.65;;;;;;;29.29;55.95;100805.56;5060774;28;67314;-42
2023/07/02 06:58:43;;;;;;;21.02;19.42;;;;;;;28.76;56.27;100738.94;5052227;28;70172;-43
2023/07/02 07:01:14;;;;;;;20.58;18.80;;;;;;;29.20;55.68;100829.28;5057480;28;66204;-41
2023/07/02 07:03:46;;;;;;;18.67;17.33;;;;;;;29.17;56.17;100824.28;5060295;28;69684;-40
2023/07/02 07:06:17;;;;;;;17.25;15.90;;;;;;;28.57;56.57;100739.78;5058928;28;65421;-41
2023/07/02 07:08:48;;;;;;;16.23;15.10;;;;;;;28.62;55.97;100775.91;5064525;28;71060;-40
2023/07/02 07:11:19;;;;;;;14.40;13.50;;;;;;;28.92;55.99;100841.09;5057956;28;66511;-43
2023/07/02 07:13:51;;;;;;;13.85;12.98;;;;;;;29.27;58.01;100857.09;5062077;28;70591;-43
2023/07/02 07:16:22;;;;;;;12.77;11.77;;;;;;;29.39;59.00;100858.13;5060280;28;66123;-42
2023/07/02 07:18:54;;;;;;;12.27;11.13;;;;;;;29.33;60.53;100829.22;5063557;28;70424;-43
2023/07/02 07:21:25;;;;;;;10.70;10.07;;;;;;;29.36;61.41;100850.44;5062090;28;65156;-40
2023/07/02 07:23:56;;;;;;;9.47;9.00;;;;;;;29.62;61.50;100873.88;5060392;28;70330;-41
2023/07/02 07:26:27;;;;;;;10.25;8.77;;;;;;;29.72;62.61;100895.06;5059309;28;65126;-41
2023/07/02 07:28:59;;;;;;;9.37;8.77;;;;;;;29.76;62.71;100901.72;5063435;28;70187;-41
2023/07/02 07:31:31;;;;;;;8.10;7.70;;;;;;;29.79;63.67;100904.00;5060932;28;65554;-41
2023/07/02 07:34:02;;;;;;;10.27;7.40;;;;;;;29.81;63.96;100872.19;5057511;28;70439;-38
2023/07/02 07:36:33;;;;;;;7.53;6.88;;;;;;;29.77;64.58;100849.31;5059825;28;65972;-41
2023/07/02 07:39:05;;;;;;;7.00;6.60;;;;;;;29.50;65.22;100783.66;5058376;28;69183;-41
2023/07/02 07:41:36;;;;;;;7.03;6.63;;;;;;;29.85;65.46;100840.13;5056843;28;66040;-40
2023/07/02 07:44:07;;;;;;;6.80;6.10;;;;;;;29.94;65.75;100838.00;5060992;28;69169;-40
2023/07/02 07:46:38;;;;;;;6.13;5.67;;;;;;;29.92;65.83;100829.28;5063107;28;65157;-39
2023/07/02 07:49:10;;;;;;;5.77;5.37;;;;;;;29.94;66.40;100821.78;5054055;28;70792;-39
2023/07/02 07:51:41;;;;;;;5.60;5.30;;;;;;;29.97;67.16;100832.16;5042810;28;65598;-40
2023/07/02 07:54:12;;;;;;;5.13;4.80;;;;;;;29.98;66.77;100831.13;5058103;28;69320;-40
2023/07/02 07:56:44;;;;;;;11.90;4.77;;;;;;;29.92;67.71;100823.84;5056378;28;65999;-40
2023/07/02 07:59:15;;;;;;;4.17;3.90;;;;;;;30.00;67.75;100813.63;5058015;28;69440;-40
2023/07/02 08:01:46;;;;;;;4.90;4.50;;;;;;;29.84;68.46;100779.81;5061509;27;67055;-38
2023/07/02 08:04:18;;;;;;;8.00;4.63;;;;;;;30.00;68.36;100807.38;5060719;28;69217;-40
2023/07/02 08:06:49;;;;;;;4.05;3.75;;;;;;;30.01;68.47;100800.94;5062311;28;66152;-37
2023/07/02 08:09:21;;;;;;;4.27;3.87;;;;;;;29.65;69.08;100747.47;5054910;28;69940;-40
2023/07/02 08:11:52;;;;;;;3.45;3.25;;;;;;;30.01;69.31;100806.38;5059025;28;65560;-38
2023/07/02 08:14:23;;;;;;;5.72;3.38;;;;;;;29.98;69.64;100815.75;5058559;28;70453;-44
2023/07/02 08:16:54;;;;;;;3.53;3.17;;;;;;;29.53;69.94;100739.16;5065947;28;65290;-40
2023/07/02 08:19:26;;;;;;;4.60;3.17;;;;;;;29.97;69.94;100805.94;5058224;28;70104;-40
2023/07/02 08:21:57;;;;;;;6.03;3.20;;;;;;;29.58;69.94;100752.84;5042939;28;66099;-41
2023/07/02 08:24:31;;;;;;;2.60;2.50;;;;;;;29.72;70.78;100778.81;5058671;28;70360;-40
2023/07/02 08:27:05;;;;;;;3.10;2.90;;;;;;;29.93;70.24;100804.72;5061712;28;66086;-42
2023/07/02 08:29:39;;;;;;;2.80;2.60;;;;;;;29.90;70.38;100796.22;5057960;28;45186;-39
2023/07/02 08:32:11;;;;;;;6.90;2.88;;;;;;;29.81;70.95;100779.41;5063887;28;66306;-40
2023/07/02 08:34:42;;;;;;;2.40;2.30;;;;;;;29.83;70.90;100783.53;5040291;28;70316;-42
2023/07/02 08:37:13;;;;;;;4.72;2.40;;;;;;;29.87;71.19;100772.31;5059452;28;65797;-39
2023/07/02 08:39:45;;;;;;;2.88;2.67;;;;;;;29.67;71.71;100740.81;5024476;28;69559;-42
2023/07/02 08:42:16;;;;;;;3.50;2.23;;;;;;;29.65;71.59;100737.47;5058708;28;65677;-41
2023/07/02 08:44:49;;;;;;;2.92;2.63;;;;;;;29.81;71.67;100758.63;5045174;28;70383;-40
2023/07/02 08:47:19;;;;;;;;;;;;;;;29.59;72.63;100744.53;5062578;28;65766;-41
2023/07/02 08:49:51;;;;;;;2.20;2.00;;;;;;;29.78;71.55;100737.44;5062158;28;70242;-41
2023/07/02 08:52:22;;;;;;;3.55;2.17;;;;;;;29.75;74.28;100737.81;5060139;28;66415;-40
2023/07/02 08:54:53;;;;;;;5.07;1.63;;;;;;;29.71;75.16;100714.16;5057902;28;69992;-41
2023/07/02 08:57:25;;;;;;;2.58;1.95;;;;;;;29.63;75.57;100701.72;5059358;28;65447;-39
2023/07/02 08:59:56;;;;;;;4.30;1.50;;;;;;;29.77;75.70;100724.94;5059663;28;69684;-40
2023/07/02 09:02:34;;;;;;;4.43;1.92;;;;;;;29.81;76.25;100731.56;5063057;28;65963;-40
2023/07/02 09:05:06;;;;;;;2.95;1.77;;;;;;;29.75;76.74;100726.19;5059923;28;70606;-39
2023/07/02 09:07:55;;;;;;;2.90;1.80;;;;;;;29.50;78.57;100731.47;5060066;28;66240;-41
2023/07/02 09:10:31;;;;;;;2.30;1.70;;;;;;;29.52;78.83;100732.09;5060458;28;70783;-42
2023/07/02 09:13:07;;;;;;;6.68;2.13;;;;;;;29.44;79.56;100727.75;5043372;28;66086;-41
2023/07/02 09:15:41;;;;;;;14.00;4.20;;;;;;;29.42;80.03;100710.09;5061642;28;70157;-43
2023/07/02 09:18:25;;;;;;;9.25;7.38;;;;;;;29.57;79.96;100716.91;5063215;28;65486;-44
2023/07/02 09:20:57;;;;;;;6.93;6.43;;;;;;;29.79;76.15;100712.03;5058289;28;70093;-42
2023/07/02 09:23:37;;;;;;;7.37;6.77;;;;;;;29.80;75.81;100721.78;5062387;28;66196;-43
2023/07/02 09:26:19;;;;;;;6.07;5.68;;;;;;;29.91;75.30;100709.47;5060874;28;70540;-43
2023/07/02 09:28:50;;;;;;;8.20;7.70;;;;;;;29.88;74.75;100698.25;5064579;28;66453;-42
2023/07/02 09:31:22;;;;;;;10.52;9.57;;;;;;;29.97;74.24;100710.47;5061386;28;70279;-42
2023/07/02 09:34:02;;;;;;;11.98;10.82;;;;;;;29.46;73.96;100632.97;5060388;28;66352;-41
2023/07/02 09:36:40;;;;;;;19.90;16.77;;;;;;;30.06;74.41;100701.03;5053341;28;70373;-41
2023/07/02 09:39:21;;;;;;;37.88;25.55;;;;;;;29.65;74.21;100640.16;5060503;28;65740;-43
2023/07/02 09:41:55;;;;;;;41.72;29.05;;;;;;;30.06;74.07;100707.28;5060749;28;70452;-44
2023/07/02 09:44:30;;;;;;;47.25;32.63;;;;;;;30.10;73.63;100702.25;5041194;28;65599;-41
2023/07/02 09:47:08;;;;;;;47.33;33.72;;;;;;;29.09;73.98;100538.22;5058750;28;70431;-41
2023/07/02 09:49:49;;;;;;;37.65;30.17;;;;;;;29.99;73.64;100684.03;5058226;28;65528;-43
2023/07/02 09:52:22;;;;;;;38.05;29.50;;;;;;;30.14;74.37;100698.06;5060332;28;69832;-43
2023/07/02 09:54:53;;;;;;;39.35;29.13;;;;;;;30.13;74.72;100693.69;5059393;28;66096;-42
2023/07/02 09:57:24;;;;;;;37.78;28.75;;;;;;;30.04;74.10;100687.72;5059942;28;69921;-42
2023/07/02 09:59:56;;;;;;;35.33;28.55;;;;;;;30.13;74.33;100695.59;5060684;28;65900;-42
2023/07/02 10:02:27;;;;;;;35.42;26.77;;;;;;;30.05;74.33;100689.38;5061273;28;70327;-42
2023/07/02 10:04:59;;;;;;;30.60;25.90;;;;;;;30.10;74.72;100696.84;5059967;28;65876;-42
2023/07/02 10:07:33;;;;;;;30.27;23.63;;;;;;;30.13;74.83;100712.63;5060407;28;70717;-43
2023/07/02 10:10:06;;;;;;;25.83;21.98;;;;;;;30.18;75.10;100715.53;5056747;28;67052;-42
2023/07/02 10:12:46;;;;;;;27.92;22.25;;;;;;;29.66;74.49;100636.41;5054685;28;69438;-43
2023/07/02 10:15:26;;;;;;;22.55;20.25;;;;;;;29.67;74.38;100648.91;5057914;28;65899;-42
2023/07/02 10:18:02;;;;;;;21.23;18.92;;;;;;;30.14;75.09;100708.06;5060384;28;70401;-42
2023/07/02 10:20:38;;;;;;;28.95;18.88;;;;;;;29.54;74.83;100611.09;5056499;28;65405;-41
2023/07/02 10:23:10;;;;;;;21.20;18.95;;;;;;;30.17;75.18;100713.03;5059317;28;69824;-42
2023/07/02 10:25:41;;;;;;;19.02;17.15;;;;;;;30.13;75.42;100718.06;5054105;28;66530;-41
2023/07/02 10:28:24;;;;;;;17.08;15.57;;;;;;;29.97;75.22;100692.34;5060028;28;69999;-43
2023/07/02 10:30:56;;;;;;;17.20;15.60;;;;;;;30.14;75.46;100725.09;5024803;28;65549;-42
2023/07/02 10:33:28;;;;;;;17.55;15.18;;;;;;;30.17;75.35;100734.66;5060554;28;69625;-42
2023/07/02 10:35:59;;;;;;;14.68;13.43;;;;;;;30.16;75.05;100733.03;5057972;28;66075;-42
2023/07/02 10:38:30;;;;;;;15.00;13.47;;;;;;;30.14;75.70;100735.09;5058996;28;69490;-44
2023/07/02 10:41:01;;;;;;;14.03;12.97;;;;;;;30.14;75.58;100732.41;5041124;28;65953;-42
2023/07/02 10:43:33;;;;;;;13.60;12.47;;;;;;;30.08;75.40;100736.81;5058233;28;70847;-42
2023/07/02 10:46:04;;;;;;;14.77;13.35;;;;;;;30.13;75.22;100747.81;5056121;28;66092;-44
2023/07/02 10:48:36;;;;;;;12.18;11.18;;;;;;;30.13;75.51;100761.34;5036699;28;70443;-42
2023/07/02 10:51:13;;;;;;;13.03;11.77;;;;;;;29.93;75.45;100737.13;5037534;28;66315;-43
2023/07/02 10:53:44;;;;;;;12.05;10.85;;;;;;;30.12;75.37;100765.09;5056743;28;70706;-43
2023/07/02 10:56:19;;;;;;;10.27;9.48;;;;;;;30.14;75.59;100772.97;5054796;28;66795;-41
2023/07/02 10:58:51;;;;;;;10.38;9.52;;;;;;;29.84;75.40;100730.31;5054305;28;70009;-41
2023/07/02 11:01:27;;;;;;;10.13;9.30;;;;;;;30.12;75.41;100781.31;5055207;28;66250;-42
2023/07/02 11:04:04;;;;;;;9.65;8.68;;;;;;;29.89;77.07;100759.41;5054073;28;70068;-43
2023/07/02 11:06:36;;;;;;;16.38;9.75;;;;;;;29.77;79.39;100781.72;5038588;28;65774;-41
2023/07/02 11:09:17;;;;;;;13.23;9.07;;;;;;;29.58;80.61;100774.47;5056613;28;70894;-45
2023/07/02 11:11:57;;;;;;;10.57;8.48;;;;;;;29.67;82.09;100792.16;5051678;28;65724;-45
2023/07/02 11:14:30;;;;;;;9.27;8.45;;;;;;;29.48;81.86;100757.91;5054424;28;70602;-46
2023/07/02 11:17:06;;;;;;;8.25;7.65;;;;;;;29.77;82.15;100797.94;5052946;28;66556;-43
2023/07/02 11:19:38;;;;;;;8.43;7.55;;;;;;;29.78;82.46;100788.78;5054646;28;69574;-44
2023/07/02 11:22:09;;;;;;;8.53;7.80;;;;;;;29.79;82.96;100793.16;5055287;28;65490;-45
2023/07/02 11:24:40;;;;;;;7.73;7.13;;;;;;;29.48;81.76;100736.28;5051991;28;69354;-44
2023/07/02 11:27:22;;;;;;;7.30;6.83;;;;;;;29.15;82.88;100694.84;5053969;28;65441;-45
2023/07/02 11:30:00;;;;;;;9.32;7.90;;;;;;;29.28;82.61;100706.63;5055120;28;70235;-45
2023/07/02 11:32:31;;;;;;;7.25;6.78;;;;;;;29.72;82.35;100764.47;5031152;28;64254;-44
2023/07/02 11:35:03;;;;;;;7.50;6.90;;;;;;;29.84;82.78;100800.63;5054097;28;70418;-45
2023/07/02 11:37:34;;;;;;;7.95;7.25;;;;;;;29.91;82.70;100795.16;5055452;28;66624;-46